This is the latest recevied weather packets stored in our database for station/object KM4KBD. If no packets are shown the sender has not sent any weather packets the latest 10 day(s).
| Time | Temp. | Humidity | Pressure | Rain* | Wind** | Luminosity | Snow |
|---|---|---|---|---|---|---|---|
| 1778053465 | 15.56° C | 94% | 1011.8 hPa | 1.78 mm | - | 0 W/m² | - |
| 1778053162 | 15.56° C | 95% | 1011.9 hPa | 3.56 mm | - | 0 W/m² | - |
| 1778052860 | 15.56° C | 94% | 1012 hPa | 3.05 mm | - | 0 W/m² | - |
| 1778052557 | 15.56° C | 94% | 1011.5 hPa | 1.27 mm | - | 0 W/m² | - |
| 1778052254 | 15.56° C | 94% | 1011.5 hPa | 1.78 mm | - | 0 W/m² | - |
| 1778051952 | 15.56° C | 94% | 1011.4 hPa | 0 mm | - | 0 W/m² | - |
| 1778051650 | 15.56° C | 94% | 1011.3 hPa | 0 mm | - | 0 W/m² | - |
| 1778051346 | 15.56° C | 94% | 1011.4 hPa | 0 mm | - | 0 W/m² | - |
| 1778051043 | 15° C | 93% | 1011.8 hPa | 0 mm | - | 0 W/m² | - |
| 1778050740 | 15.56° C | 93% | 1011.4 hPa | 1.27 mm | - | 0 W/m² | - |
| 1778050438 | 15.56° C | 93% | 1011.7 hPa | 1.27 mm | - | 0 W/m² | - |
| 1778050134 | 15.56° C | 92% | 1011.9 hPa | 0 mm | - | 0 W/m² | - |
| 1778049830 | 15.56° C | 91% | 1011.8 hPa | 1.78 mm | - | 0 W/m² | - |
| 1778049527 | 15.56° C | 90% | 1011.7 hPa | 1.78 mm | - | 0 W/m² | - |
| 1778049225 | 15.56° C | 88% | 1012 hPa | 0 mm | - | 0 W/m² | - |
| 1778048923 | 15.56° C | 89% | 1012 hPa | 0 mm | - | 0 W/m² | - |
| 1778048620 | 15.56° C | 90% | 1011.9 hPa | 0 mm | - | 0 W/m² | - |
| 1778048316 | 15° C | 90% | 1012 hPa | 0 mm | - | 0 W/m² | - |
| 1778048013 | 15° C | 92% | 1012.2 hPa | 0 mm | - | 0 W/m² | - |
| 1778047712 | 15° C | 92% | 1012.2 hPa | 1.27 mm | - | 0 W/m² | - |
| 1778047409 | 15° C | 92% | 1012.4 hPa | 6.1 mm | - | 0 W/m² | - |
| 1778047106 | 15.56° C | 90% | 1012.7 hPa | 6.1 mm | - | 0 W/m² | - |
| 1778046803 | 16.11° C | 86% | 1012.8 hPa | 1.27 mm | - | 0 W/m² | - |
| 1778046500 | 16.67° C | 82% | 1012.9 hPa | 0 mm | - | 0 W/m² | - |
| 1778046196 | 16.67° C | 81% | 1012.4 hPa | 0 mm | - | 0 W/m² | - |
* Rain latest hour (hover to see other rain measurements)
** Current wind speed in m/s (hover to see current wind gust speed)